createdAt,value
2022-10-23T00:01:42.033Z,95491.56
2022-10-23T00:04:11.432Z,95492.34
2022-10-23T00:06:38.290Z,95498.75
2022-10-23T00:09:05.838Z,95498.16
2022-10-23T00:11:32.656Z,95491.59
2022-10-23T00:14:00.410Z,95497.19
2022-10-23T00:16:27.562Z,95480.00
2022-10-23T00:18:54.236Z,95482.41
2022-10-23T00:21:21.214Z,95473.19
2022-10-23T00:23:47.849Z,95465.41
2022-10-23T00:26:17.499Z,95474.38
2022-10-23T00:28:45.318Z,95474.56
2022-10-23T00:31:12.707Z,95476.78
2022-10-23T00:33:40.532Z,95476.72
2022-10-23T00:36:08.199Z,95466.81
2022-10-23T00:38:36.239Z,95457.63
2022-10-23T00:41:06.364Z,95466.41
2022-10-23T00:43:33.137Z,95481.13
2022-10-23T00:45:59.872Z,95490.56
2022-10-23T00:48:27.426Z,95487.97
2022-10-23T00:50:54.488Z,95493.41
2022-10-23T00:53:21.583Z,95485.63
2022-10-23T00:55:50.347Z,95488.00
2022-10-23T00:58:19.180Z,95489.19
2022-10-23T01:00:45.709Z,95488.41
2022-10-23T01:03:12.850Z,95484.78
2022-10-23T01:08:31.367Z,95481.19
2022-10-23T01:11:10.493Z,95496.38
2022-10-23T01:13:41.870Z,95504.34
2022-10-23T01:16:16.748Z,95494.75
2022-10-23T01:19:12.794Z,95507.13
2022-10-23T01:21:49.353Z,95498.75
2022-10-23T01:24:19.897Z,95490.34
2022-10-23T01:26:59.766Z,95478.38
2022-10-23T01:29:33.107Z,95488.38
2022-10-23T01:32:15.031Z,95492.16
2022-10-23T01:35:04.886Z,95498.72
2022-10-23T01:37:38.839Z,95505.50
2022-10-23T01:40:08.087Z,95498.75
2022-10-23T01:42:38.517Z,95511.94
2022-10-23T01:45:08.551Z,95507.97
2022-10-23T01:47:42.428Z,95504.78
2022-10-23T01:50:12.708Z,95503.94
2022-10-23T01:52:42.153Z,95518.72
2022-10-23T01:55:10.653Z,95510.16
2022-10-23T01:57:38.199Z,95505.38
2022-10-23T02:00:06.976Z,95518.34
2022-10-23T02:02:37.897Z,95512.97
2022-10-23T02:05:17.160Z,95516.13
2022-10-23T02:07:45.258Z,95512.72
2022-10-23T02:10:12.926Z,95516.94
2022-10-23T02:12:58.122Z,95521.91
2022-10-23T02:15:33.428Z,95524.34
2022-10-23T02:18:18.690Z,95485.16
2022-10-23T02:20:56.118Z,95517.09
2022-10-23T02:23:35.894Z,95525.50
2022-10-23T02:26:02.819Z,95531.50
2022-10-23T02:28:40.473Z,95527.91
2022-10-23T02:31:10.320Z,95535.06
2022-10-23T02:33:36.959Z,95533.25
2022-10-23T02:36:04.056Z,95542.00
2022-10-23T02:38:32.679Z,95540.63
2022-10-23T02:41:07.938Z,95533.38
2022-10-23T02:43:42.391Z,95530.97
2022-10-23T02:46:19.645Z,95524.47
2022-10-23T02:48:55.406Z,95512.50
2022-10-23T02:51:26.106Z,95514.69
2022-10-23T02:54:16.939Z,95516.72
2022-10-23T02:57:03.141Z,95513.53
2022-10-23T02:59:44.044Z,95511.53
2022-10-23T03:02:11.169Z,95515.13
2022-10-23T03:04:40.190Z,95522.31
2022-10-23T03:07:18.105Z,95527.31
2022-10-23T03:09:44.833Z,95550.31
2022-10-23T03:12:13.426Z,95560.09
2022-10-23T03:14:40.129Z,95564.69
2022-10-23T03:17:07.720Z,95564.63
2022-10-23T03:19:34.498Z,95565.44
2022-10-23T03:22:03.362Z,95564.63
2022-10-23T03:24:30.061Z,95554.25
2022-10-23T03:26:56.630Z,95553.84
2022-10-23T03:29:31.442Z,95560.41
2022-10-23T03:31:58.001Z,95556.22
2022-10-23T03:34:24.570Z,95559.06
2022-10-23T03:36:53.163Z,95557.88
2022-10-23T03:39:20.525Z,95561.06
2022-10-23T03:41:47.560Z,95575.06
2022-10-23T03:44:15.773Z,95595.44
2022-10-23T03:46:44.525Z,95590.22
2022-10-23T03:49:11.165Z,95585.84
2022-10-23T03:51:41.611Z,95589.06
2022-10-23T03:54:08.481Z,95587.84
2022-10-23T03:56:35.326Z,95588.84
2022-10-23T03:59:02.002Z,95580.25
2022-10-23T04:01:28.773Z,95579.03
2022-10-23T04:03:55.521Z,95585.03
2022-10-23T04:06:24.239Z,95581.44
2022-10-23T04:08:55.219Z,95586.63
2022-10-23T04:11:22.366Z,95588.66
2022-10-23T04:13:50.283Z,95593.84
2022-10-23T04:16:17.234Z,95598.25
2022-10-23T04:18:44.999Z,95601.84
2022-10-23T04:21:11.993Z,95609.81
2022-10-23T04:23:39.256Z,95607.00
2022-10-23T04:26:11.896Z,95568.59
2022-10-23T04:28:38.869Z,95612.59
2022-10-23T04:31:05.603Z,95603.38
2022-10-23T04:33:33.465Z,95607.34
2022-10-23T04:36:00.122Z,95602.78
2022-10-23T04:38:26.729Z,95603.94
2022-10-23T04:40:53.393Z,95608.31
2022-10-23T04:43:21.866Z,95599.75
2022-10-23T04:45:49.171Z,95599.13
2022-10-23T04:48:15.798Z,95592.53
2022-10-23T04:51:03.908Z,95595.13
2022-10-23T04:53:50.823Z,95597.69
2022-10-23T04:56:55.564Z,95606.47
2022-10-23T04:59:22.296Z,95612.06
2022-10-23T05:01:49.072Z,95624.81
2022-10-23T05:04:17.895Z,95612.06
2022-10-23T05:07:02.867Z,95620.28
2022-10-23T05:09:48.245Z,95624.50
2022-10-23T05:12:27.498Z,95628.91
2022-10-23T05:14:54.291Z,95589.94
2022-10-23T05:17:23.731Z,95624.16
2022-10-23T05:19:53.438Z,95633.38
2022-10-23T05:22:22.567Z,95631.38
2022-10-23T05:24:51.916Z,95629.81
2022-10-23T05:27:23.464Z,95631.19
2022-10-23T05:29:51.911Z,95642.19
2022-10-23T05:32:24.162Z,95640.19
2022-10-23T05:34:50.788Z,95647.59
2022-10-23T05:37:17.561Z,95652.56
2022-10-23T05:39:44.697Z,95649.22
2022-10-23T05:42:13.715Z,95653.97
2022-10-23T05:44:41.411Z,95663.09
2022-10-23T05:47:17.671Z,95661.19
2022-10-23T05:49:44.312Z,95670.38
2022-10-23T05:52:20.261Z,95677.66
2022-10-23T05:55:09.845Z,95674.44
2022-10-23T05:57:56.637Z,95676.81
2022-10-23T06:00:42.819Z,95687.31
2022-10-23T06:03:29.374Z,95684.88
2022-10-23T06:05:55.968Z,95694.53
2022-10-23T06:08:27.606Z,95691.41
2022-10-23T06:10:54.263Z,95695.66
2022-10-23T06:13:21.018Z,95700.06
2022-10-23T06:15:48.016Z,95660.34
2022-10-23T06:18:19.159Z,95699.91
2022-10-23T06:20:54.982Z,95692.91
2022-10-23T06:23:26.328Z,95696.94
2022-10-23T06:26:19.511Z,95690.50
2022-10-23T06:29:07.002Z,95700.19
2022-10-23T06:31:33.647Z,95696.34
2022-10-23T06:34:01.842Z,95692.25
2022-10-23T06:36:30.198Z,95698.63
2022-10-23T06:39:07.304Z,95705.81
2022-10-23T06:41:59.084Z,95692.03
2022-10-23T06:44:44.218Z,95698.66
2022-10-23T06:47:13.032Z,95710.94
2022-10-23T06:49:58.419Z,95718.50
2022-10-23T06:52:45.524Z,95710.69
2022-10-23T06:55:14.828Z,95695.53
2022-10-23T06:57:42.155Z,95701.66
2022-10-23T07:00:09.750Z,95705.75
2022-10-23T07:02:45.429Z,95712.09
2022-10-23T07:05:13.877Z,95719.13
2022-10-23T07:07:41.334Z,95720.94
2022-10-23T07:10:09.477Z,95715.44
2022-10-23T07:12:45.320Z,95713.56
2022-10-23T07:15:44.460Z,95726.50
2022-10-23T07:18:16.915Z,95716.88
2022-10-23T07:21:15.891Z,95735.34
2022-10-23T07:23:43.623Z,95731.03
2022-10-23T07:26:14.575Z,95722.38
2022-10-23T07:28:42.757Z,95727.88
2022-10-23T07:31:10.170Z,95740.50
2022-10-23T07:34:03.296Z,95728.72
2022-10-23T07:36:31.292Z,95736.41
2022-10-23T07:38:58.374Z,95741.75
2022-10-23T07:41:25.289Z,95732.03
2022-10-23T07:43:52.018Z,95736.09
2022-10-23T07:46:18.823Z,95734.47
2022-10-23T07:48:45.996Z,95728.06
2022-10-23T07:51:14.302Z,95737.31
2022-10-23T07:53:46.424Z,95742.81
2022-10-23T07:56:32.905Z,95743.41
2022-10-23T07:59:16.067Z,95738.38
2022-10-23T08:01:51.568Z,95741.94
2022-10-23T08:04:21.011Z,95741.44
2022-10-23T08:06:56.242Z,95735.31
2022-10-23T08:09:25.051Z,95725.91
2022-10-23T08:11:51.778Z,95729.38
2022-10-23T08:14:20.553Z,95739.00
2022-10-23T08:16:47.941Z,95745.41
2022-10-23T08:19:17.451Z,95728.19
2022-10-23T08:21:45.663Z,95733.03
2022-10-23T08:24:13.993Z,95731.22
2022-10-23T08:26:43.321Z,95729.41
2022-10-23T08:29:11.286Z,95728.84
2022-10-23T08:31:38.125Z,95729.47
2022-10-23T08:34:24.797Z,95724.75
2022-10-23T08:36:52.980Z,95718.63
2022-10-23T08:39:19.612Z,95741.88
2022-10-23T08:42:23.507Z,95735.00
2022-10-23T08:45:05.192Z,95720.28
2022-10-23T08:47:44.051Z,95714.50
2022-10-23T08:50:41.167Z,95731.41
2022-10-23T08:53:10.835Z,95718.69
2022-10-23T08:55:55.007Z,95730.91
2022-10-23T08:58:29.774Z,95756.16
2022-10-23T09:00:56.414Z,95731.75
2022-10-23T09:03:23.136Z,95730.47
2022-10-23T09:06:08.978Z,95740.19
2022-10-23T09:08:38.800Z,95715.22
2022-10-23T09:11:28.053Z,95728.19
2022-10-23T09:13:55.899Z,95732.94
2022-10-23T09:16:25.610Z,95712.59
2022-10-23T09:18:57.441Z,95720.09
2022-10-23T09:21:30.173Z,95722.50
2022-10-23T09:23:57.915Z,95733.81
2022-10-23T09:26:24.867Z,95724.38
2022-10-23T09:28:52.933Z,95711.75
2022-10-23T09:31:19.910Z,95731.22
2022-10-23T09:34:00.926Z,95730.22
2022-10-23T09:36:29.461Z,95715.47
2022-10-23T09:39:00.233Z,95712.91
2022-10-23T09:41:28.926Z,95711.84
2022-10-23T09:44:07.898Z,95716.06
2022-10-23T09:46:40.866Z,95725.56
2022-10-23T09:49:27.772Z,95719.22
2022-10-23T09:51:54.416Z,95720.28
2022-10-23T09:54:24.119Z,95721.84
2022-10-23T09:56:53.129Z,95725.56
2022-10-23T09:59:22.459Z,95706.56
2022-10-23T10:01:51.089Z,95736.13
2022-10-23T10:04:38.279Z,95720.81
2022-10-23T10:07:06.939Z,95718.19
2022-10-23T10:09:33.641Z,95708.09
2022-10-23T10:12:23.732Z,95709.72
2022-10-23T10:15:09.033Z,95706.00
2022-10-23T10:17:43.652Z,95709.16
2022-10-23T10:20:16.494Z,95699.06
2022-10-23T10:22:53.250Z,95699.03
2022-10-23T10:25:22.898Z,95700.09
2022-10-23T10:28:01.618Z,95718.09
2022-10-23T10:30:35.029Z,95685.34
2022-10-23T10:33:09.405Z,95699.59
2022-10-23T10:35:41.860Z,95685.28
2022-10-23T10:38:14.536Z,95677.88
2022-10-23T10:40:49.060Z,95673.69
2022-10-23T10:43:33.790Z,95680.50
2022-10-23T10:46:00.383Z,95680.00
2022-10-23T10:48:47.170Z,95681.06
2022-10-23T10:51:38.275Z,95632.50
2022-10-23T10:54:07.670Z,95669.94
2022-10-23T10:56:36.847Z,95681.06
2022-10-23T10:59:11.611Z,95688.94
2022-10-23T11:01:42.448Z,95692.13
2022-10-23T11:04:18.303Z,95683.13
2022-10-23T11:06:46.388Z,95673.06
2022-10-23T11:09:21.044Z,95660.28
2022-10-23T11:11:48.757Z,95672.06
2022-10-23T11:14:22.861Z,95673.34
2022-10-23T11:16:55.118Z,95653.25
2022-10-23T11:19:21.671Z,95664.94
2022-10-23T11:22:03.389Z,95669.63
2022-10-23T11:24:36.518Z,95662.50
2022-10-23T11:27:03.181Z,95649.47
2022-10-23T11:29:42.358Z,95645.84
2022-10-23T11:32:14.849Z,95644.72
2022-10-23T11:34:56.918Z,95640.53
2022-10-23T11:37:24.616Z,95655.19
2022-10-23T11:40:03.570Z,95641.06
2022-10-23T11:42:31.717Z,95636.28
2022-10-23T11:44:58.286Z,95639.91
2022-10-23T11:47:39.617Z,95631.44
2022-10-23T11:50:06.982Z,95617.06
2022-10-23T11:52:38.751Z,95627.34
2022-10-23T11:55:24.241Z,95640.84
2022-10-23T11:58:04.572Z,95625.41
2022-10-23T12:00:32.253Z,95624.84
2022-10-23T12:03:00.369Z,95616.63
2022-10-23T12:05:30.162Z,95610.28
2022-10-23T12:07:58.801Z,95618.59
2022-10-23T12:10:31.721Z,95612.41
2022-10-23T12:12:59.892Z,95598.94
2022-10-23T12:15:27.174Z,95608.63
2022-10-23T12:17:56.046Z,95606.75
2022-10-23T12:20:37.972Z,95613.22
2022-10-23T12:23:19.877Z,95621.44
2022-10-23T12:25:58.481Z,95612.50
2022-10-23T12:28:45.002Z,95603.75
2022-10-23T12:31:14.641Z,95635.97
2022-10-23T12:33:48.106Z,95608.53
2022-10-23T12:36:33.766Z,95613.44
2022-10-23T12:39:01.079Z,95613.16
2022-10-23T12:41:28.849Z,95616.81
2022-10-23T12:44:00.692Z,95621.66
2022-10-23T12:46:33.124Z,95627.91
2022-10-23T12:49:01.233Z,95629.16
2022-10-23T12:51:32.045Z,95634.72
2022-10-23T12:53:58.708Z,95624.66
2022-10-23T12:56:26.056Z,95630.22
2022-10-23T12:58:57.985Z,95632.34
2022-10-23T13:01:26.504Z,95607.66
2022-10-23T13:03:58.374Z,95627.78
2022-10-23T13:06:25.880Z,95645.16
2022-10-23T13:08:52.558Z,95637.47
2022-10-23T13:11:35.397Z,95639.44
2022-10-23T13:14:11.679Z,95647.72
2022-10-23T13:16:38.398Z,95640.53
2022-10-23T13:19:05.818Z,95639.81
2022-10-23T13:21:32.794Z,95642.63
2022-10-23T13:23:59.544Z,95635.38
2022-10-23T13:26:34.211Z,95640.59
2022-10-23T13:29:09.613Z,95633.78
2022-10-23T13:31:36.914Z,95648.06
2022-10-23T13:34:05.108Z,95637.47
2022-10-23T13:36:35.199Z,95634.59
2022-10-23T13:39:13.705Z,95639.66
2022-10-23T13:41:44.529Z,95643.06
2022-10-23T13:44:18.167Z,95651.59
2022-10-23T13:46:45.511Z,95636.84
2022-10-23T13:49:12.215Z,95648.06
2022-10-23T13:51:42.683Z,95641.63
2022-10-23T13:54:13.897Z,95644.00
2022-10-23T13:56:40.558Z,95648.44
2022-10-23T13:59:08.413Z,95645.25
2022-10-23T14:01:36.102Z,95653.97
2022-10-23T14:04:06.585Z,95651.03
2022-10-23T14:06:33.552Z,95645.28
2022-10-23T14:09:00.207Z,95651.03
2022-10-23T14:11:26.760Z,95643.19
2022-10-23T14:13:53.722Z,95597.97
2022-10-23T14:16:21.380Z,95632.78
2022-10-23T14:18:48.091Z,95638.81
2022-10-23T14:21:19.922Z,95624.13
2022-10-23T14:23:47.302Z,95635.72
2022-10-23T14:26:15.594Z,95631.84
2022-10-23T14:28:42.436Z,95627.44
2022-10-23T14:31:13.242Z,95625.47
2022-10-23T14:33:40.270Z,95621.06
2022-10-23T14:36:07.419Z,95624.41
2022-10-23T14:38:34.218Z,95624.03
2022-10-23T14:41:02.480Z,95629.44
2022-10-23T14:43:29.098Z,95633.53
2022-10-23T14:45:55.703Z,95628.41
2022-10-23T14:48:22.357Z,95627.72
2022-10-23T14:50:49.408Z,95624.06
2022-10-23T14:53:16.310Z,95621.94
2022-10-23T14:55:42.920Z,95622.41
2022-10-23T14:58:09.651Z,95621.72
2022-10-23T15:00:36.340Z,95625.63
2022-10-23T15:03:02.973Z,95626.44
2022-10-23T15:05:29.620Z,95633.81
2022-10-23T15:07:57.026Z,95631.00
2022-10-23T15:10:23.612Z,95628.38
2022-10-23T15:12:50.251Z,95632.09
2022-10-23T15:15:16.873Z,95639.47
2022-10-23T15:17:43.805Z,95635.22
2022-10-23T15:20:10.567Z,95627.31
2022-10-23T15:22:37.785Z,95619.34
2022-10-23T15:25:04.900Z,95621.97
2022-10-23T15:27:31.518Z,95623.00
2022-10-23T15:29:58.117Z,95620.84
2022-10-23T15:32:24.971Z,95622.16
2022-10-23T15:34:52.519Z,95625.50
2022-10-23T15:37:19.347Z,95623.28
2022-10-23T15:39:52.468Z,95615.84
2022-10-23T15:42:19.341Z,95621.63
2022-10-23T15:44:45.932Z,95620.53
2022-10-23T15:47:12.568Z,95622.06
2022-10-23T15:49:39.952Z,95639.63
2022-10-23T15:54:35.673Z,95633.03
2022-10-23T15:57:02.647Z,95631.44
2022-10-23T15:59:30.572Z,95630.03
2022-10-23T16:01:57.284Z,95633.44
2022-10-23T16:04:24.060Z,95637.53
2022-10-23T16:06:51.332Z,95633.84
2022-10-23T16:09:17.892Z,95637.00
2022-10-23T16:11:44.540Z,95638.00
2022-10-23T16:14:12.582Z,95641.84
2022-10-23T16:16:39.279Z,95639.28
2022-10-23T16:19:05.852Z,95636.34
2022-10-23T16:21:33.627Z,95635.47
2022-10-23T16:24:01.106Z,95641.19
2022-10-23T16:26:29.002Z,95641.63
2022-10-23T16:28:56.808Z,95644.78
2022-10-23T16:31:24.134Z,95646.56
2022-10-23T16:33:51.330Z,95646.38
2022-10-23T16:36:18.241Z,95653.94
2022-10-23T16:39:18.658Z,95649.69
2022-10-23T16:42:03.753Z,95662.75
2022-10-23T16:44:44.326Z,95659.56
2022-10-23T16:47:11.004Z,95662.94
2022-10-23T16:49:37.568Z,95663.34
2022-10-23T16:52:04.162Z,95668.06
2022-10-23T16:54:30.726Z,95665.69
2022-10-23T16:56:57.384Z,95667.59
2022-10-23T16:59:24.070Z,95669.19
2022-10-23T17:01:50.922Z,95675.06
2022-10-23T17:04:17.568Z,95671.88
2022-10-23T17:06:44.191Z,95680.78
2022-10-23T17:09:10.757Z,95683.66
2022-10-23T17:11:38.378Z,95688.25
2022-10-23T17:14:06.222Z,95688.91
2022-10-23T17:16:37.847Z,95685.84
2022-10-23T17:19:16.156Z,95697.75
2022-10-23T17:21:53.266Z,95689.97
2022-10-23T17:24:21.089Z,95690.63
2022-10-23T17:26:48.521Z,95648.56
2022-10-23T17:29:15.266Z,95695.41
2022-10-23T17:31:43.514Z,95680.69
2022-10-23T17:34:14.325Z,95690.41
2022-10-23T17:36:43.296Z,95684.34
2022-10-23T17:39:10.745Z,95694.59
2022-10-23T17:41:37.902Z,95687.91
2022-10-23T17:44:04.669Z,95684.47
2022-10-23T17:46:31.312Z,95690.75
2022-10-23T17:48:58.911Z,95675.03
2022-10-23T17:51:26.948Z,95685.25
2022-10-23T17:53:54.783Z,95683.19
2022-10-23T17:56:23.495Z,95686.69
2022-10-23T17:58:51.039Z,95688.31
2022-10-23T18:01:19.642Z,95694.94
2022-10-23T18:03:46.656Z,95696.50
2022-10-23T18:06:17.741Z,95697.78
2022-10-23T18:08:45.002Z,95691.41
2022-10-23T18:11:31.910Z,95688.56
2022-10-23T18:16:27.035Z,95690.97
2022-10-23T18:18:53.859Z,95692.34
2022-10-23T18:21:21.662Z,95695.53
2022-10-23T18:23:48.642Z,95684.09
2022-10-23T18:26:19.321Z,95696.47
2022-10-23T18:28:46.717Z,95687.59
2022-10-23T18:31:14.121Z,95693.72
2022-10-23T18:33:41.209Z,95691.41
2022-10-23T18:36:14.562Z,95694.09
2022-10-23T18:38:41.327Z,95692.38
2022-10-23T18:41:08.035Z,95688.81
2022-10-23T18:43:49.156Z,95692.09
2022-10-23T18:46:15.858Z,95690.53
2022-10-23T18:48:42.736Z,95693.56
2022-10-23T18:51:15.737Z,95691.53
2022-10-23T18:53:43.400Z,95698.00
2022-10-23T18:56:10.043Z,95714.19
2022-10-23T18:58:36.587Z,95702.78
2022-10-23T19:01:03.379Z,95715.13
2022-10-23T19:03:30.105Z,95715.06
2022-10-23T19:05:56.678Z,95711.56
2022-10-23T19:08:23.963Z,95715.34
2022-10-23T19:10:51.524Z,95714.22
2022-10-23T19:13:18.161Z,95715.31
2022-10-23T19:15:44.990Z,95703.13
2022-10-23T19:18:11.793Z,95711.16
2022-10-23T19:20:38.549Z,95706.34
2022-10-23T19:23:06.105Z,95711.56
2022-10-23T19:25:33.766Z,95713.56
2022-10-23T19:28:01.933Z,95708.78
2022-10-23T19:30:28.860Z,95713.38
2022-10-23T19:32:55.413Z,95712.47
2022-10-23T19:35:22.467Z,95712.38
2022-10-23T19:37:49.172Z,95715.88
2022-10-23T19:40:15.746Z,95727.41
2022-10-23T19:42:43.017Z,95720.91
2022-10-23T19:45:11.549Z,95723.72
2022-10-23T19:47:38.357Z,95710.19
2022-10-23T19:50:05.890Z,95715.69
2022-10-23T19:52:32.528Z,95714.53
2022-10-23T19:54:59.186Z,95718.53
2022-10-23T19:57:25.826Z,95726.53
2022-10-23T19:59:52.961Z,95728.59
2022-10-23T20:02:20.154Z,95730.66
2022-10-23T20:04:47.020Z,95734.72
2022-10-23T20:07:13.993Z,95732.97
2022-10-23T20:09:41.102Z,95722.81
2022-10-23T20:12:07.733Z,95737.59
2022-10-23T20:14:34.467Z,95726.50
2022-10-23T20:17:02.744Z,95726.09
2022-10-23T20:19:30.087Z,95723.13
2022-10-23T20:21:59.117Z,95728.34
2022-10-23T20:24:25.750Z,95727.16
2022-10-23T20:26:53.486Z,95721.31
2022-10-23T20:29:23.198Z,95727.41
2022-10-23T20:31:49.985Z,95726.81
2022-10-23T20:34:16.811Z,95726.81
2022-10-23T20:36:46.723Z,95728.84
2022-10-23T20:39:18.760Z,95723.44
2022-10-23T20:41:45.382Z,95719.63
2022-10-23T20:44:13.899Z,95716.66
2022-10-23T20:46:40.626Z,95716.66
2022-10-23T20:49:07.297Z,95721.88
2022-10-23T20:51:35.785Z,95711.31
2022-10-23T20:54:02.502Z,95717.53
2022-10-23T20:56:32.638Z,95717.53
2022-10-23T20:59:05.346Z,95729.19
2022-10-23T21:01:32.341Z,95724.00
2022-10-23T21:04:00.511Z,95720.41
2022-10-23T21:06:27.838Z,95723.22
2022-10-23T21:08:55.973Z,95728.41
2022-10-23T21:11:22.585Z,95719.25
2022-10-23T21:13:51.705Z,95725.66
2022-10-23T21:16:23.560Z,95724.47
2022-10-23T21:18:53.451Z,95720.47
2022-10-23T21:21:20.692Z,95719.28
2022-10-23T21:23:48.243Z,95716.09
2022-10-23T21:26:15.424Z,95721.31
2022-10-23T21:28:50.866Z,95715.50
2022-10-23T21:31:27.685Z,95719.34
2022-10-23T21:33:54.276Z,95714.53
2022-10-23T21:36:22.141Z,95711.72
2022-10-23T21:38:56.216Z,95713.31
2022-10-23T21:41:24.205Z,95710.50
2022-10-23T21:43:54.761Z,95703.34
2022-10-23T21:46:22.231Z,95708.09
2022-10-23T21:48:48.816Z,95712.91
2022-10-23T21:51:25.941Z,95718.13
2022-10-23T21:53:53.317Z,95718.72
2022-10-23T21:56:28.612Z,95715.72
2022-10-23T21:58:55.663Z,95717.28
2022-10-23T22:01:22.395Z,95712.91
2022-10-23T22:03:49.254Z,95717.91
2022-10-23T22:06:17.367Z,95713.31
2022-10-23T22:08:43.970Z,95718.94
2022-10-23T22:11:11.364Z,95718.94
2022-10-23T22:13:37.972Z,95720.16
2022-10-23T22:16:05.017Z,95723.34
2022-10-23T22:18:31.621Z,95719.16
2022-10-23T22:21:02.373Z,95734.94
2022-10-23T22:23:29.775Z,95721.78
2022-10-23T22:25:56.538Z,95722.75
2022-10-23T22:28:23.503Z,95729.72
2022-10-23T22:30:52.551Z,95724.53
2022-10-23T22:33:19.238Z,95723.34
2022-10-23T22:35:45.945Z,95725.34
2022-10-23T22:38:12.587Z,95735.16
2022-10-23T22:40:44.278Z,95726.16
2022-10-23T22:43:13.004Z,95728.94
2022-10-23T22:45:39.644Z,95728.16
2022-10-23T22:48:08.393Z,95722.97
2022-10-23T22:50:34.941Z,95724.94
2022-10-23T22:53:01.525Z,95718.56
2022-10-23T22:55:28.143Z,95723.16
2022-10-23T22:57:54.698Z,95728.34
2022-10-23T23:00:21.367Z,95734.50
2022-10-23T23:02:47.984Z,95731.50
2022-10-23T23:05:14.644Z,95730.56
2022-10-23T23:07:41.379Z,95732.94
2022-10-23T23:10:08.199Z,95728.97
2022-10-23T23:12:36.990Z,95733.34
2022-10-23T23:15:04.093Z,95730.94
2022-10-23T23:17:30.707Z,95730.13
2022-10-23T23:19:57.381Z,95730.13
2022-10-23T23:22:23.916Z,95733.34
2022-10-23T23:24:50.443Z,95726.97
2022-10-23T23:27:17.022Z,95722.94
2022-10-23T23:29:43.612Z,95730.53
2022-10-23T23:32:10.515Z,95729.75
2022-10-23T23:34:37.048Z,95729.75
2022-10-23T23:37:03.710Z,95725.75
2022-10-23T23:39:30.294Z,95726.75
2022-10-23T23:41:56.998Z,95722.16
2022-10-23T23:44:23.605Z,95720.56
2022-10-23T23:46:50.158Z,95723.34
2022-10-23T23:49:16.884Z,95719.53
2022-10-23T23:51:43.493Z,95725.50
2022-10-23T23:54:10.110Z,95731.50
2022-10-23T23:56:36.708Z,95727.31
2022-10-23T23:59:03.302Z,95717.72
